Time;durP1;ratioP1;P1;durP2;ratioP2;P2;SDS_P1;SDS_P2;PMS_P1;PMS_P2;Temp;Humidity;BMP_temperature;BMP_pressure;BME280_temperature;BME280_humidity;BME280_pressure;Samples;Min_cycle;Max_cycle;Signal;HPM_P1;HPM_P2
2022/10/24 00:01:10;;;;;;;15.05;5.57;;;14.50;93.30;;;;;;5035058;28;20203;-91
2022/10/24 00:03:35;;;;;;;7.75;5.38;;;14.50;93.30;;;;;;5052794;28;20661;-90
2022/10/24 00:06:01;;;;;;;9.93;6.15;;;14.50;93.30;;;;;;5034938;28;20180;-91
2022/10/24 00:08:26;;;;;;;6.88;5.32;;;14.50;93.40;;;;;;5034936;28;20257;-91
2022/10/24 00:10:52;;;;;;;7.78;6.75;;;14.50;93.50;;;;;;5034856;28;20286;-90
2022/10/24 00:13:18;;;;;;;17.48;5.88;;;14.50;93.60;;;;;;5034946;28;20267;-90
2022/10/24 00:15:48;;;;;;;10.30;5.18;;;14.50;93.60;;;;;;5034883;28;20215;-90
2022/10/24 00:18:15;;;;;;;8.25;5.63;;;14.40;93.60;;;;;;5034830;28;20212;-91
2022/10/24 00:20:41;;;;;;;6.18;4.95;;;14.40;93.50;;;;;;5052668;28;20184;-91
2022/10/24 00:23:07;;;;;;;5.88;5.28;;;14.40;93.50;;;;;;5053251;28;20210;-91
2022/10/24 00:25:32;;;;;;;9.27;5.45;;;14.40;93.50;;;;;;5038967;28;20176;-91
2022/10/24 00:27:58;;;;;;;5.87;4.73;;;14.40;93.40;;;;;;5038508;28;20275;-90
2022/10/24 00:30:23;;;;;;;5.15;4.65;;;14.40;93.30;;;;;;5038708;28;20301;-90
2022/10/24 00:32:50;;;;;;;8.35;5.20;;;14.50;93.20;;;;;;5040147;28;20200;-91
2022/10/24 00:35:16;;;;;;;8.98;5.50;;;14.40;93.10;;;;;;5056191;28;20781;-90
2022/10/24 00:37:42;;;;;;;8.40;5.03;;;14.40;93.10;;;;;;5038243;28;20204;-91
2022/10/24 00:40:09;;;;;;;6.45;5.05;;;14.40;93.10;;;;;;5056131;28;20226;-90
2022/10/24 00:42:35;;;;;;;7.28;4.80;;;14.40;93.00;;;;;;5056199;28;20195;-90
2022/10/24 00:45:47;;;;;;;5.43;4.53;;;14.50;93.00;;;;;;5038026;28;20184;-91
2022/10/24 00:48:24;;;;;;;6.47;4.67;;;14.50;92.90;;;;;;5017732;28;20657;-91
2022/10/24 00:50:55;;;;;;;9.37;4.47;;;14.40;92.80;;;;;;5056158;28;20192;-90
2022/10/24 00:53:22;;;;;;;12.65;5.35;;;14.40;92.70;;;;;;5038873;28;20537;-90
2022/10/24 00:55:51;;;;;;;7.67;4.77;;;14.40;92.60;;;;;;5038483;28;20178;-90
2022/10/24 00:58:19;;;;;;;6.35;4.35;;;14.30;92.60;;;;;;5037809;28;20210;-91
2022/10/24 01:00:45;;;;;;;7.75;5.00;;;14.30;92.50;;;;;;5055646;28;20208;-90
2022/10/24 01:03:11;;;;;;;4.70;4.30;;;14.30;92.50;;;;;;5037782;28;20543;-90
2022/10/24 01:06:12;;;;;;;12.90;4.63;;;14.30;92.40;;;;;;5022516;28;20199;-91
2022/10/24 01:08:49;;;;;;;5.87;4.80;;;14.30;92.40;;;;;;5034547;28;20273;-91
2022/10/24 01:11:33;;;;;;;8.90;4.80;;;14.30;92.20;;;;;;5038172;28;20257;-91
2022/10/24 01:14:24;;;;;;;7.87;4.20;;;14.30;92.20;;;;;;5038232;28;20164;-91
2022/10/24 01:16:55;;;;;;;11.45;4.38;;;14.20;92.20;;;;;;5038136;28;20203;-91
2022/10/24 01:19:44;;;;;;;7.77;4.43;;;14.20;92.10;;;;;;5038078;28;20234;-91
2022/10/24 01:22:18;;;;;;;10.57;4.40;;;14.20;92.20;;;;;;5038204;28;20200;-91
2022/10/24 01:25:08;;;;;;;8.07;4.05;;;14.20;92.20;;;;;;5038901;28;20262;-91
2022/10/24 01:27:56;;;;;;;7.10;4.30;;;14.20;92.20;;;;;;5001042;28;20276;-91
2022/10/24 01:30:22;;;;;;;10.57;4.63;;;14.10;92.30;;;;;;5038028;28;20172;-91
2022/10/24 01:33:14;;;;;;;5.37;4.53;;;14.10;92.40;;;;;;5037891;28;20192;-91
2022/10/24 01:35:50;;;;;;;7.70;4.73;;;14.00;92.40;;;;;;5037189;28;20169;-91
2022/10/24 01:38:37;;;;;;;8.43;5.10;;;14.00;92.40;;;;;;5055531;28;20191;-91
2022/10/24 01:41:12;;;;;;;8.10;4.37;;;14.00;92.50;;;;;;5039821;28;20196;-91
2022/10/24 01:43:56;;;;;;;8.07;4.40;;;13.90;92.50;;;;;;5037816;28;20168;-91
2022/10/24 01:46:27;;;;;;;8.70;4.63;;;13.90;92.60;;;;;;5037714;28;20163;-91
2022/10/24 01:49:01;;;;;;;9.63;5.83;;;13.90;92.70;;;;;;5037850;28;20259;-91
2022/10/24 01:51:30;;;;;;;5.67;4.57;;;13.90;92.70;;;;;;5037962;28;20203;-91
2022/10/24 01:53:56;;;;;;;4.83;4.33;;;13.90;92.80;;;;;;5037756;28;20176;-91
2022/10/24 01:56:24;;;;;;;7.07;5.10;;;13.90;92.80;;;;;;5037496;28;20226;-91
2022/10/24 01:58:50;;;;;;;6.60;4.63;;;13.90;92.80;;;;;;5037510;28;20483;-91
2022/10/24 02:01:21;;;;;;;6.80;6.07;;;13.80;92.80;;;;;;5037604;28;20196;-91
2022/10/24 02:03:54;;;;;;;10.83;6.13;;;13.80;92.90;;;;;;5037771;28;20191;-91
2022/10/24 02:06:24;;;;;;;5.87;4.77;;;13.80;93.00;;;;;;5037727;28;20172;-91
2022/10/24 02:08:57;;;;;;;12.17;5.27;;;13.80;93.00;;;;;;5037344;28;20562;-91
2022/10/24 02:11:23;;;;;;;36.43;8.13;;;13.80;93.10;;;;;;5037332;28;20219;-91
2022/10/24 02:13:58;;;;;;;11.43;5.03;;;13.80;93.10;;;;;;5037642;28;20176;-91
2022/10/24 02:16:24;;;;;;;9.90;6.40;;;13.80;93.00;;;;;;5037076;28;20202;-91
2022/10/24 02:18:52;;;;;;;17.60;5.43;;;13.80;93.00;;;;;;5037520;28;20227;-90
2022/10/24 02:21:52;;;;;;;6.57;5.00;;;13.80;93.10;;;;;;5036980;28;20196;-91
2022/10/24 02:24:22;;;;;;;5.13;4.60;;;13.80;93.10;;;;;;5037160;28;20168;-91
2022/10/24 02:27:08;;;;;;;6.43;5.20;;;13.90;93.00;;;;;;5036876;28;20661;-91
2022/10/24 02:29:34;;;;;;;12.20;5.97;;;13.80;92.90;;;;;;5036985;28;20646;-91
2022/10/24 02:32:04;;;;;;;13.47;5.00;;;13.70;92.80;;;;;;5036892;28;20210;-91
2022/10/24 02:34:33;;;;;;;10.17;5.40;;;13.70;92.90;;;;;;5037038;28;20516;-91
2022/10/24 02:37:01;;;;;;;8.87;4.90;;;13.70;92.90;;;;;;5036685;28;20203;-91
2022/10/24 02:39:29;;;;;;;8.27;5.80;;;13.60;93.10;;;;;;5036816;28;20191;-92
2022/10/24 02:41:56;;;;;;;10.57;5.47;;;13.50;93.00;;;;;;5036538;28;20700;-91
2022/10/24 02:44:23;;;;;;;7.60;5.47;;;13.50;93.00;;;;;;5036698;28;20176;-92
2022/10/24 02:46:52;;;;;;;10.80;5.53;;;13.40;93.00;;;;;;5035727;28;20275;-91
2022/10/24 02:49:18;;;;;;;7.67;5.93;;;13.30;93.00;;;;;;5036709;28;20272;-91
2022/10/24 02:51:45;;;;;;;16.33;6.17;;;13.30;93.20;;;;;;5036563;28;20235;-91
2022/10/24 02:54:11;;;;;;;7.93;5.43;;;13.30;93.20;;;;;;5036288;28;20279;-91
2022/10/24 02:56:42;;;;;;;10.47;5.37;;;13.30;93.20;;;;;;5036325;28;20677;-91
2022/10/24 02:59:07;;;;;;;7.23;5.10;;;13.20;93.30;;;;;;5036351;28;20179;-91
2022/10/24 03:01:33;;;;;;;8.87;6.03;;;13.20;93.30;;;;;;5036409;28;20628;-91
2022/10/24 03:03:58;;;;;;;13.17;5.80;;;13.20;93.30;;;;;;5036717;28;20669;-91
2022/10/24 03:06:24;;;;;;;8.60;5.70;;;13.20;93.40;;;;;;5036424;28;20267;-91
2022/10/24 03:08:49;;;;;;;12.40;6.50;;;13.20;93.50;;;;;;5036378;28;20521;-91
2022/10/24 03:11:16;;;;;;;6.67;5.50;;;13.20;93.40;;;;;;5036365;28;20218;-91
2022/10/24 03:13:41;;;;;;;8.67;5.73;;;13.20;93.50;;;;;;5036153;28;20176;-91
2022/10/24 03:16:07;;;;;;;10.40;5.77;;;13.20;93.60;;;;;;5036554;28;20229;-91
2022/10/24 03:18:32;;;;;;;6.90;5.63;;;13.20;93.60;;;;;;5036531;28;20212;-91
2022/10/24 03:20:58;;;;;;;8.27;5.80;;;13.20;93.60;;;;;;5036061;28;20202;-91
2022/10/24 03:23:27;;;;;;;7.47;5.80;;;13.20;93.60;;;;;;5035917;28;20176;-90
2022/10/24 03:25:56;;;;;;;6.93;5.30;;;13.20;93.70;;;;;;5036157;28;20178;-91
2022/10/24 03:28:21;;;;;;;6.10;5.50;;;13.20;93.70;;;;;;5036076;28;20186;-91
2022/10/24 03:30:47;;;;;;;7.07;5.30;;;13.20;93.70;;;;;;5036126;28;20605;-91
2022/10/24 03:33:13;;;;;;;10.13;5.80;;;13.20;93.70;;;;;;5036109;28;20235;-91
2022/10/24 03:35:38;;;;;;;6.80;5.87;;;13.10;93.80;;;;;;5036017;28;20190;-91
2022/10/24 03:38:07;;;;;;;6.07;5.40;;;13.10;93.80;;;;;;5035879;28;20662;-91
2022/10/24 03:40:35;;;;;;;6.83;5.83;;;13.10;93.90;;;;;;5036150;28;20172;-90
2022/10/24 03:43:00;;;;;;;7.53;5.50;;;13.10;93.80;;;;;;5036105;28;20713;-91
2022/10/24 03:45:26;;;;;;;15.63;5.90;;;13.00;93.90;;;;;;5035971;28;20211;-91
2022/10/24 03:47:51;;;;;;;8.13;7.20;;;13.10;93.90;;;;;;5035747;28;20212;-90
2022/10/24 03:50:17;;;;;;;13.70;5.87;;;13.10;93.90;;;;;;5035902;28;20183;-91
2022/10/24 03:52:43;;;;;;;11.60;5.90;;;13.10;93.90;;;;;;5035918;28;20199;-91
2022/10/24 03:55:09;;;;;;;9.10;5.70;;;13.10;93.90;;;;;;5036091;28;20553;-91
2022/10/24 03:57:35;;;;;;;11.83;5.90;;;13.10;93.80;;;;;;5035886;28;20227;-90
2022/10/24 04:00:00;;;;;;;11.17;5.87;;;13.10;93.80;;;;;;5057430;28;20627;-91
2022/10/24 04:02:26;;;;;;;10.53;5.67;;;13.00;93.80;;;;;;5039462;28;20199;-91
2022/10/24 04:04:52;;;;;;;19.57;5.67;;;13.00;93.90;;;;;;5039467;28;20650;-91
2022/10/24 04:07:17;;;;;;;23.83;5.80;;;13.10;93.90;;;;;;5039621;28;20218;-91
2022/10/24 04:09:43;;;;;;;7.43;5.53;;;13.10;93.90;;;;;;5039295;28;20179;-91
2022/10/24 04:12:08;;;;;;;9.00;6.00;;;13.10;93.90;;;;;;5039341;28;20688;-91
2022/10/24 04:14:34;;;;;;;13.23;6.10;;;13.10;93.90;;;;;;5039274;28;20186;-91
2022/10/24 04:17:00;;;;;;;8.90;5.60;;;13.10;93.90;;;;;;5039157;28;20216;-90
2022/10/24 04:19:25;;;;;;;13.67;5.70;;;13.20;94.00;;;;;;5039573;28;20229;-91
2022/10/24 04:21:51;;;;;;;8.67;5.50;;;13.20;93.90;;;;;;5057315;28;20196;-90
2022/10/24 04:24:16;;;;;;;11.70;5.67;;;13.20;93.90;;;;;;5039320;28;20176;-91
2022/10/24 04:26:42;;;;;;;10.67;5.97;;;13.20;93.80;;;;;;5039381;28;20199;-91
2022/10/24 04:29:08;;;;;;;17.03;6.30;;;13.20;93.80;;;;;;5040036;28;20198;-91
2022/10/24 04:31:33;;;;;;;7.93;5.30;;;13.30;93.80;;;;;;5038932;28;20226;-90
2022/10/24 04:33:59;;;;;;;9.03;5.93;;;13.30;93.70;;;;;;5039044;28;20661;-90
2022/10/24 04:36:24;;;;;;;14.33;5.93;;;13.30;93.60;;;;;;5038886;28;20184;-91
2022/10/24 04:38:50;;;;;;;15.70;5.50;;;13.30;93.60;;;;;;5056802;28;20172;-91
2022/10/24 04:41:16;;;;;;;6.77;5.57;;;13.20;93.60;;;;;;5038886;28;20634;-91
2022/10/24 04:43:41;;;;;;;10.63;5.60;;;13.20;93.60;;;;;;5038947;28;20206;-90
2022/10/24 04:46:07;;;;;;;19.43;6.23;;;13.30;93.60;;;;;;5039166;28;20271;-90
2022/10/24 04:48:33;;;;;;;8.77;5.77;;;13.30;93.50;;;;;;5038786;28;20171;-91
2022/10/24 04:50:59;;;;;;;14.17;5.20;;;13.30;93.50;;;;;;5038512;28;20250;-90
2022/10/24 04:53:24;;;;;;;11.67;5.70;;;13.30;93.40;;;;;;5038723;28;20179;-90
2022/10/24 04:55:50;;;;;;;8.70;5.40;;;13.30;93.40;;;;;;5038824;28;20325;-91
2022/10/24 04:58:16;;;;;;;9.03;5.67;;;13.30;93.30;;;;;;5038492;28;20207;-91
2022/10/24 05:00:45;;;;;;;18.57;6.33;;;13.30;93.20;;;;;;5039013;28;20221;-90
2022/10/24 05:03:11;;;;;;;5.87;5.07;;;13.30;93.20;;;;;;5038615;28;20183;-91
2022/10/24 05:05:37;;;;;;;10.20;5.40;;;13.30;93.20;;;;;;5038964;28;20176;-91
2022/10/24 05:08:03;;;;;;;7.13;5.70;;;13.30;93.20;;;;;;5038699;28;20543;-90
2022/10/24 05:10:29;;;;;;;12.23;5.80;;;13.20;93.20;;;;;;5037234;28;20638;-90
2022/10/24 05:12:54;;;;;;;12.97;5.53;;;13.30;93.20;;;;;;5038584;28;20180;-90
2022/10/24 05:15:20;;;;;;;9.87;5.97;;;13.30;93.20;;;;;;5056075;28;20594;-90
2022/10/24 05:17:46;;;;;;;10.17;5.47;;;13.30;93.10;;;;;;5038249;28;20219;-90
2022/10/24 05:20:11;;;;;;;14.27;5.67;;;13.30;93.00;;;;;;5038133;28;20210;-91
2022/10/24 05:22:37;;;;;;;9.23;4.70;;;13.20;93.00;;;;;;5037916;28;20195;-91
2022/10/24 05:25:03;;;;;;;8.30;5.20;;;13.30;93.00;;;;;;5037986;28;20191;-91
2022/10/24 05:27:29;;;;;;;6.40;5.17;;;13.30;93.00;;;;;;5037801;28;20180;-90
2022/10/24 05:29:55;;;;;;;12.20;5.10;;;13.30;92.80;;;;;;5038020;28;20176;-91
2022/10/24 05:32:22;;;;;;;10.80;5.70;;;13.30;92.80;;;;;;5037617;28;20203;-90
2022/10/24 05:34:48;;;;;;;10.17;5.13;;;13.30;92.80;;;;;;5038000;28;20179;-90
2022/10/24 05:37:14;;;;;;;10.67;5.60;;;13.20;92.70;;;;;;5037900;28;20196;-90
2022/10/24 05:39:40;;;;;;;6.90;5.10;;;13.20;92.70;;;;;;5037862;28;20179;-90
2022/10/24 05:42:05;;;;;;;12.73;5.40;;;13.20;92.70;;;;;;5037503;28;20203;-91
2022/10/24 05:44:31;;;;;;;10.23;5.70;;;13.10;92.70;;;;;;5037838;28;20176;-92
2022/10/24 05:46:57;;;;;;;8.10;5.07;;;13.10;92.80;;;;;;5037854;28;20661;-91
2022/10/24 05:49:22;;;;;;;13.10;6.40;;;13.10;92.80;;;;;;5037471;28;20186;-90
2022/10/24 05:51:48;;;;;;;12.43;5.17;;;13.10;92.80;;;;;;5037384;28;20203;-90
2022/10/24 05:54:14;;;;;;;13.63;5.40;;;13.10;92.80;;;;;;5037453;28;20182;-91
2022/10/24 05:56:39;;;;;;;12.87;5.10;;;13.10;92.70;;;;;;5037384;28;20195;-91
2022/10/24 05:59:05;;;;;;;17.23;6.07;;;13.10;92.70;;;;;;5037572;28;20172;-91
2022/10/24 06:01:30;;;;;;;20.23;5.23;;;13.10;92.60;;;;;;5037155;28;20665;-90
2022/10/24 06:03:56;;;;;;;10.97;4.67;;;13.20;92.50;;;;;;5037460;28;20179;-91
2022/10/24 06:06:23;;;;;;;6.90;4.57;;;13.30;92.20;;;;;;5037413;28;20195;-90
2022/10/24 06:08:49;;;;;;;15.17;4.93;;;13.40;91.80;;;;;;5037319;28;20180;-91
2022/10/24 06:11:14;;;;;;;6.90;4.27;;;13.50;91.30;;;;;;5037326;28;20195;-90
2022/10/24 06:13:40;;;;;;;9.53;4.20;;;13.50;91.00;;;;;;5037305;28;20199;-91
2022/10/24 06:16:06;;;;;;;12.00;4.27;;;13.50;90.90;;;;;;5037889;28;20183;-90
2022/10/24 06:18:32;;;;;;;19.93;4.97;;;13.40;91.00;;;;;;5037000;28;20244;-91
2022/10/24 06:21:02;;;;;;;7.30;4.93;;;13.30;91.10;;;;;;5037219;28;20199;-91
2022/10/24 06:23:29;;;;;;;13.10;4.63;;;13.20;91.30;;;;;;5037064;28;20176;-91
2022/10/24 06:25:54;;;;;;;12.80;6.03;;;13.30;91.40;;;;;;5037042;28;20561;-91
2022/10/24 06:28:20;;;;;;;12.80;4.87;;;13.30;91.30;;;;;;5037094;28;20185;-90
2022/10/24 06:30:48;;;;;;;12.33;5.20;;;13.20;91.30;;;;;;5037056;28;20300;-91
2022/10/24 06:33:14;;;;;;;15.47;4.90;;;13.20;91.30;;;;;;5037208;28;20217;-91
2022/10/24 06:35:39;;;;;;;13.03;4.57;;;13.20;91.40;;;;;;5036985;28;20184;-90
2022/10/24 06:38:05;;;;;;;11.37;4.90;;;13.20;91.40;;;;;;5036775;28;20235;-90
2022/10/24 06:40:30;;;;;;;11.03;4.50;;;13.20;91.40;;;;;;5036769;28;20180;-90
2022/10/24 06:42:56;;;;;;;7.07;4.63;;;13.20;91.50;;;;;;5037272;28;20263;-90
2022/10/24 06:45:22;;;;;;;9.20;4.60;;;13.20;91.50;;;;;;5036720;28;20211;-90
2022/10/24 06:47:49;;;;;;;9.97;4.70;;;13.20;91.50;;;;;;5036569;28;20542;-89
2022/10/24 06:50:15;;;;;;;9.13;4.43;;;13.20;91.50;;;;;;5037065;28;20180;-90
2022/10/24 06:52:40;;;;;;;19.73;6.50;;;13.20;91.60;;;;;;5036176;28;20269;-89
2022/10/24 06:55:06;;;;;;;5.23;4.70;;;13.20;91.60;;;;;;5036687;28;20186;-90
2022/10/24 06:57:32;;;;;;;7.73;4.63;;;13.20;91.70;;;;;;5036474;28;20624;-90
2022/10/24 06:59:57;;;;;;;9.90;4.83;;;13.20;91.70;;;;;;5037624;28;20215;-90
2022/10/24 07:02:23;;;;;;;9.40;5.07;;;13.30;91.70;;;;;;5037347;28;20558;-91
2022/10/24 07:04:48;;;;;;;10.77;4.80;;;13.20;91.70;;;;;;5037670;28;20215;-92
2022/10/24 07:07:16;;;;;;;15.53;5.43;;;13.30;91.70;;;;;;5037020;28;20183;-91
2022/10/24 07:09:42;;;;;;;8.63;4.47;;;13.30;91.60;;;;;;5035498;28;20553;-90
2022/10/24 07:12:08;;;;;;;10.43;5.00;;;13.40;91.50;;;;;;5053369;28;20670;-91
2022/10/24 07:14:33;;;;;;;11.20;4.57;;;13.40;91.50;;;;;;5053640;28;20167;-91
2022/10/24 07:16:59;;;;;;;9.40;4.80;;;13.50;91.40;;;;;;5053096;28;20218;-91
2022/10/24 07:19:25;;;;;;;9.50;4.93;;;13.50;91.30;;;;;;5053292;28;20236;-91
2022/10/24 07:21:50;;;;;;;9.27;4.60;;;13.60;91.00;;;;;;5035386;28;20324;-91
2022/10/24 07:24:16;;;;;;;7.77;4.40;;;13.70;91.00;;;;;;5035378;28;20207;-91
2022/10/24 07:26:41;;;;;;;9.10;4.47;;;13.70;90.90;;;;;;5035632;28;20183;-91
2022/10/24 07:29:07;;;;;;;10.40;4.43;;;13.80;90.80;;;;;;5035460;28;20230;-91
2022/10/24 07:31:34;;;;;;;9.20;3.90;;;13.80;90.50;;;;;;5035323;28;20195;-90
2022/10/24 07:34:02;;;;;;;6.93;4.27;;;14.00;90.00;;;;;;5062639;28;20171;-91
2022/10/24 07:36:29;;;;;;;5.90;4.30;;;14.10;89.70;;;;;;5053739;28;20634;-91
2022/10/24 07:38:56;;;;;;;11.27;4.10;;;14.10;89.50;;;;;;5035649;28;20168;-91
2022/10/24 07:41:23;;;;;;;7.73;4.57;;;14.30;88.70;;;;;;5053367;28;20285;-90
2022/10/24 07:43:49;;;;;;;9.77;3.83;;;14.40;88.60;;;;;;5035215;28;20615;-91
2022/10/24 07:46:16;;;;;;;9.07;5.20;;;14.40;88.20;;;;;;5035272;28;20258;-91
2022/10/24 07:48:41;;;;;;;8.67;3.63;;;14.50;88.00;;;;;;5053372;28;20207;-91
2022/10/24 07:51:09;;;;;;;7.97;4.63;;;14.50;87.80;;;;;;5035059;28;20195;-91
2022/10/24 07:53:35;;;;;;;10.10;4.00;;;14.50;87.80;;;;;;5035344;28;20555;-90
2022/10/24 07:56:01;;;;;;;11.30;3.53;;;14.50;87.90;;;;;;5052991;28;20176;-90
2022/10/24 07:58:28;;;;;;;8.80;4.27;;;14.60;88.00;;;;;;5052819;28;20198;-90
2022/10/24 08:00:54;;;;;;;5.90;3.27;;;14.70;88.00;;;;;;5052867;28;20188;-91
2022/10/24 08:03:19;;;;;;;11.03;3.93;;;14.80;87.00;;;;;;5035179;28;20171;-91
2022/10/24 08:05:46;;;;;;;5.60;3.20;;;14.90;86.80;;;;;;5035525;28;20542;-90
2022/10/24 08:08:11;;;;;;;5.28;3.40;;;15.00;86.40;;;;;;5034970;28;20215;-90
2022/10/24 08:10:37;;;;;;;10.90;3.67;;;15.10;86.10;;;;;;5035046;28;20175;-90
2022/10/24 08:13:03;;;;;;;11.35;5.45;;;15.20;85.60;;;;;;5053096;28;20179;-92
2022/10/24 08:15:29;;;;;;;6.47;3.80;;;15.30;85.50;;;;;;5052632;28;20507;-90
2022/10/24 08:17:54;;;;;;;5.85;3.65;;;15.30;85.30;;;;;;5052832;28;20212;-90
2022/10/24 08:20:20;;;;;;;7.45;4.38;;;15.40;85.20;;;;;;5052624;28;20597;-91
2022/10/24 08:22:46;;;;;;;8.25;4.43;;;15.40;85.00;;;;;;5035273;28;20224;-90
2022/10/24 08:25:13;;;;;;;9.57;4.40;;;15.40;85.40;;;;;;5052556;28;20175;-90
2022/10/24 08:27:42;;;;;;;15.70;4.10;;;15.40;85.90;;;;;;5052639;28;20168;-90
2022/10/24 08:30:08;;;;;;;6.18;3.20;;;15.50;85.50;;;;;;5052577;28;20211;-90
2022/10/24 08:32:34;;;;;;;10.43;3.92;;;15.50;85.40;;;;;;5052774;28;20220;-91
2022/10/24 08:35:00;;;;;;;13.68;3.90;;;15.60;85.50;;;;;;5036061;28;20727;-91
2022/10/24 08:37:26;;;;;;;9.05;3.30;;;15.60;85.30;;;;;;5041859;28;20208;-92
2022/10/24 08:39:55;;;;;;;10.80;3.20;;;15.70;84.40;;;;;;5044871;28;20179;-92
2022/10/24 08:42:23;;;;;;;10.30;3.47;;;15.80;84.20;;;;;;5043418;28;20223;-91
2022/10/24 08:44:50;;;;;;;14.65;2.85;;;15.90;84.10;;;;;;5041490;28;20233;-90
2022/10/24 08:47:45;;;;;;;8.25;3.00;;;16.00;83.60;;;;;;5056283;28;20238;-90
2022/10/24 08:50:29;;;;;;;4.80;2.65;;;16.20;83.50;;;;;;5056073;28;20259;-90
2022/10/24 08:53:20;;;;;;;5.18;2.97;;;16.30;83.20;;;;;;5055953;28;20172;-89
2022/10/24 08:55:49;;;;;;;8.68;2.67;;;16.20;83.20;;;;;;5055879;28;20175;-90
2022/10/24 08:58:36;;;;;;;5.18;2.50;;;16.20;83.30;;;;;;5037939;28;20207;-91
2022/10/24 09:01:06;;;;;;;7.82;2.33;;;16.40;82.00;;;;;;5037810;28;20192;-91
2022/10/24 09:03:41;;;;;;;12.50;2.55;;;16.50;81.80;;;;;;5038113;28;20160;-91
2022/10/24 09:06:18;;;;;;;6.50;2.83;;;16.60;81.90;;;;;;5038046;28;20167;-89
2022/10/24 09:08:57;;;;;;;3.92;2.65;;;16.60;81.30;;;;;;5037873;28;20168;-89
2022/10/24 09:11:35;;;;;;;6.85;3.38;;;16.70;81.30;;;;;;5038378;28;20196;-89
2022/10/24 09:14:11;;;;;;;4.25;2.53;;;16.70;80.70;;;;;;5038500;28;20250;-90
2022/10/24 09:16:44;;;;;;;8.23;2.80;;;16.80;81.20;;;;;;5037578;28;20168;-90
2022/10/24 09:19:18;;;;;;;8.38;3.05;;;16.80;81.10;;;;;;5037514;28;20240;-89
2022/10/24 09:21:44;;;;;;;12.57;3.20;;;16.80;80.60;;;;;;5037761;28;20226;-89
2022/10/24 09:24:41;;;;;;;12.98;3.03;;;16.80;80.40;;;;;;5037506;28;20564;-89
2022/10/24 09:27:14;;;;;;;6.80;2.28;;;16.90;81.50;;;;;;5037364;28;20179;-89
2022/10/24 09:29:40;;;;;;;20.20;2.40;;;16.90;80.80;;;;;;5037511;28;20164;-89
2022/10/24 09:32:16;;;;;;;6.40;2.30;;;16.80;80.10;;;;;;5037324;28;20195;-89
2022/10/24 09:34:41;;;;;;;14.80;2.30;;;16.80;80.30;;;;;;5037458;28;20221;-90
2022/10/24 09:37:39;;;;;;;5.57;2.45;;;17.00;80.60;;;;;;5037415;28;20293;-91
2022/10/24 09:40:21;;;;;;;8.93;2.78;;;17.20;80.00;;;;;;5055041;28;20172;-89
2022/10/24 09:43:14;;;;;;;7.50;2.33;;;17.40;79.20;;;;;;5037543;28;20188;-90
2022/10/24 09:45:42;;;;;;;5.13;2.47;;;17.60;79.70;;;;;;5054946;28;20159;-90
2022/10/24 09:48:32;;;;;;;9.18;2.67;;;17.50;77.40;;;;;;5037106;28;20233;-90
2022/10/24 09:50:59;;;;;;;7.70;2.90;;;17.40;78.20;;;;;;5037096;28;20195;-90
2022/10/24 09:53:29;;;;;;;6.75;2.50;;;17.40;79.00;;;;;;5037295;28;20646;-90
2022/10/24 09:55:59;;;;;;;8.43;2.13;;;17.40;77.90;;;;;;5054778;28;20160;-88
2022/10/24 09:58:31;;;;;;;11.70;2.75;;;17.50;77.60;;;;;;5036573;28;20549;-89
2022/10/24 10:01:00;;;;;;;6.50;2.10;;;17.60;77.00;;;;;;5036829;28;20199;-89
2022/10/24 10:03:27;;;;;;;9.27;2.30;;;17.70;76.50;;;;;;5036679;28;20180;-89
2022/10/24 10:05:55;;;;;;;5.15;2.13;;;17.80;76.60;;;;;;5036725;28;20176;-88
2022/10/24 10:08:28;;;;;;;5.35;2.15;;;17.90;77.00;;;;;;5036647;28;20187;-89
2022/10/24 10:11:07;;;;;;;7.38;2.17;;;17.90;75.20;;;;;;5036793;28;20691;-89
2022/10/24 10:13:44;;;;;;;8.10;3.10;;;18.00;75.70;;;;;;5036542;28;20172;-89
2022/10/24 10:16:23;;;;;;;7.10;2.15;;;18.00;75.80;;;;;;5036832;28;20174;-89
2022/10/24 10:18:50;;;;;;;5.82;2.45;;;18.10;74.80;;;;;;5054050;28;20314;-89
2022/10/24 10:21:25;;;;;;;6.82;2.65;;;18.20;75.10;;;;;;5036314;28;20262;-89
2022/10/24 10:23:53;;;;;;;5.47;2.05;;;18.20;75.90;;;;;;5054155;28;20608;-88
2022/10/24 10:26:43;;;;;;;9.48;2.40;;;18.20;75.20;;;;;;5054383;28;20656;-89
2022/10/24 10:29:18;;;;;;;7.70;2.78;;;18.20;74.30;;;;;;5044332;28;20235;-89
2022/10/24 10:31:48;;;;;;;5.30;2.10;;;18.00;74.70;;;;;;5054315;28;20191;-89
2022/10/24 10:34:31;;;;;;;7.40;2.53;;;17.90;74.30;;;;;;5038274;28;20176;-88
2022/10/24 10:36:59;;;;;;;6.43;2.35;;;18.20;74.70;;;;;;5035932;28;20188;-89
2022/10/24 10:40:03;;;;;;;9.93;3.35;;;18.20;74.40;;;;;;5037256;28;20183;-89
2022/10/24 10:42:47;;;;;;;8.15;2.30;;;17.90;74.40;;;;;;5035945;28;20673;-88
2022/10/24 10:45:25;;;;;;;7.72;2.03;;;17.80;74.30;;;;;;5036015;28;20217;-88
2022/10/24 10:48:02;;;;;;;10.65;2.17;;;17.80;75.50;;;;;;5036051;28;20168;-89
2022/10/24 10:50:48;;;;;;;14.93;2.63;;;17.80;76.10;;;;;;5035782;28;20676;-89
2022/10/24 10:53:34;;;;;;;5.88;2.30;;;17.80;75.10;;;;;;5035903;28;20172;-89
2022/10/24 10:56:16;;;;;;;7.07;2.15;;;17.70;74.30;;;;;;5035783;28;20646;-89
2022/10/24 10:58:58;;;;;;;5.55;2.35;;;17.70;72.70;;;;;;5035846;28;20199;-87
2022/10/24 11:01:47;;;;;;;9.52;2.42;;;17.70;74.90;;;;;;5035737;28;20188;-88
2022/10/24 11:04:35;;;;;;;8.75;2.33;;;17.60;74.90;;;;;;5035710;28;20221;-88
2022/10/24 11:07:17;;;;;;;11.95;2.22;;;17.70;72.90;;;;;;5035558;28;20175;-87
2022/10/24 11:09:46;;;;;;;8.73;2.33;;;17.70;74.40;;;;;;5035280;28;20207;-87
2022/10/24 11:12:37;;;;;;;5.82;1.65;;;17.60;75.10;;;;;;5053286;28;20196;-87
2022/10/24 11:15:21;;;;;;;9.93;2.25;;;17.60;74.00;;;;;;5035568;28;20638;-87
2022/10/24 11:17:49;;;;;;;8.02;2.35;;;17.60;74.40;;;;;;5035472;28;20218;-87
2022/10/24 11:20:20;;;;;;;6.72;1.90;;;17.60;73.80;;;;;;5035355;28;20176;-87
2022/10/24 11:22:56;;;;;;;5.53;2.13;;;17.60;74.80;;;;;;5035418;28;20188;-89
2022/10/24 11:25:29;;;;;;;8.70;2.13;;;18.00;74.30;;;;;;5035427;28;20633;-89
2022/10/24 11:28:05;;;;;;;8.68;2.28;;;18.20;72.90;;;;;;5035427;28;20649;-88
2022/10/24 11:30:53;;;;;;;4.80;1.98;;;18.00;73.40;;;;;;5035242;28;20179;-88
2022/10/24 11:33:31;;;;;;;7.32;1.75;;;17.90;73.80;;;;;;5053239;28;20538;-89
2022/10/24 11:36:07;;;;;;;5.55;1.95;;;17.90;71.50;;;;;;5035552;28;20324;-89
2022/10/24 11:38:38;;;;;;;5.80;2.28;;;17.80;72.10;;;;;;5035287;28;20553;-89
2022/10/24 11:41:28;;;;;;;6.40;2.65;;;17.70;72.10;;;;;;5035249;28;20282;-90
2022/10/24 11:43:57;;;;;;;5.95;2.20;;;17.60;73.90;;;;;;5035171;28;20176;-89
2022/10/24 11:46:31;;;;;;;5.88;2.28;;;17.70;73.50;;;;;;5053127;28;20179;-90
2022/10/24 11:49:01;;;;;;;9.02;2.08;;;17.60;73.80;;;;;;5035284;28;20243;-89
2022/10/24 11:51:36;;;;;;;5.82;2.25;;;17.70;73.30;;;;;;5053520;28;20651;-88
2022/10/24 11:54:29;;;;;;;9.02;2.20;;;17.70;72.10;;;;;;5035331;28;20264;-89
2022/10/24 11:57:03;;;;;;;8.60;1.98;;;17.70;72.20;;;;;;5052820;28;20203;-88
2022/10/24 11:59:29;;;;;;;3.95;1.63;;;17.70;73.60;;;;;;5035181;28;20172;-89
2022/10/24 12:01:57;;;;;;;12.10;2.38;;;17.60;73.80;;;;;;5052785;28;20744;-89
2022/10/24 12:04:52;;;;;;;6.35;2.20;;;17.70;73.80;;;;;;5035062;28;20267;-90
2022/10/24 12:07:33;;;;;;;5.85;2.20;;;17.70;73.40;;;;;;5035289;28;20176;-90
2022/10/24 12:10:16;;;;;;;5.40;2.08;;;17.70;73.70;;;;;;5035701;28;20237;-89
2022/10/24 12:13:03;;;;;;;9.23;2.28;;;17.80;72.40;;;;;;5034880;28;20231;-89
2022/10/24 12:15:42;;;;;;;9.68;2.65;;;17.80;73.10;;;;;;5034863;28;20179;-87
2022/10/24 12:18:28;;;;;;;5.32;1.98;;;17.80;73.00;;;;;;5036110;28;20215;-88
2022/10/24 12:20:59;;;;;;;10.52;2.13;;;17.80;73.00;;;;;;5038421;28;20195;-88
2022/10/24 12:23:26;;;;;;;8.18;2.20;;;17.70;72.60;;;;;;5038515;28;20623;-88
2022/10/24 12:26:07;;;;;;;6.47;2.08;;;17.70;72.00;;;;;;5038666;28;20211;-89
2022/10/24 12:28:34;;;;;;;5.43;2.63;;;17.70;73.20;;;;;;5038656;28;20183;-89
2022/10/24 12:31:14;;;;;;;5.13;2.15;;;17.80;72.10;;;;;;5038467;28;20739;-89
2022/10/24 12:33:41;;;;;;;8.63;2.20;;;17.60;71.90;;;;;;5039793;28;20179;-90
2022/10/24 12:36:07;;;;;;;9.07;2.20;;;17.50;72.40;;;;;;5038765;28;20175;-89
2022/10/24 12:38:33;;;;;;;6.07;2.40;;;17.50;73.60;;;;;;5038549;28;20249;-89
2022/10/24 12:41:20;;;;;;;5.28;1.65;;;17.40;73.80;;;;;;5039067;28;20701;-89
2022/10/24 12:43:49;;;;;;;11.98;2.47;;;17.30;74.20;;;;;;5039254;28;20164;-89
2022/10/24 12:46:14;;;;;;;10.57;2.60;;;16.70;78.20;;;;;;5038357;28;20183;-90
2022/10/24 12:49:00;;;;;;;6.55;2.17;;;16.50;80.30;;;;;;5056216;28;20524;-89
2022/10/24 12:51:28;;;;;;;8.57;2.05;;;16.30;81.50;;;;;;5024997;28;20208;-89
2022/10/24 12:54:01;;;;;;;6.60;3.03;;;16.20;82.80;;;;;;5056757;28;20221;-89
2022/10/24 12:56:29;;;;;;;4.45;1.65;;;16.10;83.90;;;;;;5057143;28;20630;-90
2022/10/24 12:58:57;;;;;;;5.70;1.88;;;16.10;83.40;;;;;;5039147;28;20253;-90
2022/10/24 13:01:33;;;;;;;5.70;2.45;;;16.50;82.00;;;;;;5056994;28;20246;-90